createdAt,value
2022-10-19T18:52:36.076Z,2.33
2022-10-19T18:55:06.778Z,2.17
2022-10-19T18:57:35.460Z,2.38
2022-10-19T19:00:04.900Z,2.17
2022-10-19T19:02:46.460Z,2.53
2022-10-19T19:05:18.785Z,2.38
2022-10-19T19:07:49.516Z,1.98
2022-10-19T19:10:18.758Z,2.10
2022-10-19T19:12:50.402Z,1.92
2022-10-19T19:15:19.839Z,2.45
2022-10-19T19:17:47.849Z,2.03
2022-10-19T19:20:15.800Z,1.77
2022-10-19T19:22:43.890Z,2.08
2022-10-19T19:25:13.241Z,2.10
2022-10-19T19:27:41.209Z,1.50
2022-10-19T19:30:10.910Z,1.85
2022-10-19T19:32:38.910Z,1.63
2022-10-19T19:35:07.489Z,1.42
2022-10-19T19:37:36.454Z,1.30
2022-10-19T19:40:04.907Z,1.63
2022-10-19T19:42:35.317Z,1.23
2022-10-19T19:45:03.359Z,1.30
2022-10-19T19:47:31.190Z,1.80
2022-10-19T19:49:59.033Z,1.38
2022-10-19T19:52:26.921Z,1.60
2022-10-19T19:54:54.764Z,1.42
2022-10-19T19:57:22.903Z,1.17
2022-10-19T19:59:52.116Z,1.48
2022-10-19T20:02:21.088Z,1.50
2022-10-19T20:04:49.965Z,1.45
2022-10-19T20:07:17.828Z,1.55
2022-10-19T20:09:46.076Z,1.70
2022-10-19T20:12:14.248Z,1.45
2022-10-19T20:14:42.088Z,1.75
2022-10-19T20:17:11.302Z,1.48
2022-10-19T20:19:39.340Z,1.52
2022-10-19T20:22:07.253Z,1.50
2022-10-19T20:24:37.637Z,1.83
2022-10-19T20:27:05.869Z,2.10
2022-10-19T20:29:33.880Z,2.30
2022-10-19T20:32:01.834Z,1.90
2022-10-19T20:34:31.262Z,2.83
2022-10-19T20:36:59.234Z,2.13
2022-10-19T20:39:27.226Z,2.00
2022-10-19T20:41:55.349Z,2.20
2022-10-19T20:44:23.290Z,2.60
2022-10-19T20:46:51.291Z,2.10
2022-10-19T20:49:19.344Z,2.10
2022-10-19T20:51:48.640Z,1.95
2022-10-19T20:54:16.492Z,1.73
2022-10-19T20:56:44.327Z,2.25
2022-10-19T20:59:14.325Z,1.55
2022-10-19T21:01:44.020Z,1.75
2022-10-19T21:04:14.556Z,1.90
2022-10-19T21:06:44.041Z,2.70
2022-10-19T21:09:15.366Z,1.90
2022-10-19T21:11:44.271Z,1.90
2022-10-19T21:14:14.162Z,1.80
2022-10-19T21:16:43.047Z,1.90
2022-10-19T21:19:13.917Z,1.80
2022-10-19T21:21:44.402Z,1.90
2022-10-19T21:24:16.048Z,1.90
2022-10-19T21:26:44.130Z,2.03
2022-10-19T21:29:13.491Z,2.00
2022-10-19T21:31:45.218Z,2.38
2022-10-19T21:34:17.155Z,1.98
2022-10-19T21:36:45.052Z,1.95
2022-10-19T21:39:14.493Z,1.98
2022-10-19T21:41:42.376Z,1.88
2022-10-19T21:44:10.492Z,2.30
2022-10-19T21:46:38.356Z,2.17
2022-10-19T21:49:06.164Z,1.73
2022-10-19T21:51:37.464Z,2.33
2022-10-19T21:54:06.677Z,2.40
2022-10-19T21:56:35.978Z,2.42
2022-10-19T21:59:04.041Z,2.65
2022-10-19T22:01:37.241Z,2.53
2022-10-19T22:04:10.526Z,2.47
2022-10-19T22:06:38.452Z,2.60
2022-10-19T22:09:08.742Z,2.13
2022-10-19T22:11:38.007Z,2.67
2022-10-19T22:14:06.437Z,2.63
2022-10-19T22:16:36.844Z,2.33
2022-10-19T22:19:06.000Z,2.22
2022-10-19T22:21:35.200Z,2.67
2022-10-19T22:24:05.545Z,2.20
2022-10-19T22:26:35.277Z,2.30
2022-10-19T22:29:06.383Z,2.40
2022-10-19T22:31:35.714Z,2.30
2022-10-19T22:34:05.349Z,2.40
2022-10-19T22:36:33.339Z,2.30
2022-10-19T22:39:01.160Z,2.55
2022-10-19T22:41:29.006Z,2.35
2022-10-19T22:43:56.858Z,2.30
2022-10-19T22:46:26.136Z,2.67
2022-10-19T22:48:54.150Z,2.13
2022-10-19T22:51:22.214Z,2.13
2022-10-19T22:53:50.149Z,2.30
2022-10-19T22:56:18.030Z,2.03
2022-10-19T22:58:45.994Z,2.10
2022-10-19T23:01:16.108Z,2.10
2022-10-19T23:03:45.619Z,2.10
2022-10-19T23:06:15.290Z,2.03
2022-10-19T23:08:43.754Z,2.20
2022-10-19T23:11:12.376Z,1.77
2022-10-19T23:13:40.780Z,2.03
2022-10-19T23:16:09.705Z,2.05
2022-10-19T23:18:40.117Z,2.22
2022-10-19T23:21:12.166Z,2.80
2022-10-19T23:23:40.820Z,1.98
2022-10-19T23:26:11.061Z,2.60
2022-10-19T23:28:40.599Z,2.38
2022-10-19T23:31:10.595Z,2.40
2022-10-19T23:33:38.890Z,2.33
2022-10-19T23:36:09.851Z,2.35
2022-10-19T23:38:37.754Z,2.33
2022-10-19T23:41:05.934Z,2.58
2022-10-19T23:43:34.181Z,1.98
2022-10-19T23:46:02.054Z,2.35
2022-10-19T23:48:29.980Z,2.20
2022-10-19T23:50:59.358Z,2.70
2022-10-19T23:53:30.241Z,2.28
2022-10-19T23:56:01.358Z,2.45
2022-10-19T23:58:30.205Z,2.33
